createdAt,value
2022-08-18T00:00:34.667Z,1.3
2022-08-18T00:01:44.381Z,0.9
2022-08-18T00:03:00.412Z,1.3
2022-08-18T00:04:12.414Z,1.1
2022-08-18T00:05:15.586Z,1.1
2022-08-18T00:06:28.030Z,0.8
2022-08-18T00:07:36.099Z,0.6
2022-08-18T00:08:45.813Z,0.9
2022-08-18T00:09:54.527Z,0.9
2022-08-18T00:11:03.323Z,1.1
2022-08-18T00:12:13.048Z,0.9
2022-08-18T00:13:21.806Z,1
2022-08-18T00:14:30.660Z,1.2
2022-08-18T00:15:41.562Z,0.8
2022-08-18T00:16:50.204Z,0.8
2022-08-18T00:17:59.912Z,0.8
2022-08-18T00:19:09.721Z,0.7
2022-08-18T00:20:18.365Z,0.9
2022-08-18T00:21:28.169Z,0.8
2022-08-18T00:22:36.080Z,0.9
2022-08-18T00:23:45.832Z,0.8
2022-08-18T00:24:55.596Z,0.8
2022-08-18T00:26:03.357Z,0.7
2022-08-18T00:27:13.160Z,1
2022-08-18T00:28:23.753Z,1
2022-08-18T00:29:30.671Z,0.7
2022-08-18T00:30:40.408Z,0.9
2022-08-18T00:31:49.197Z,0.6
2022-08-18T00:32:58.907Z,0.8
2022-08-18T00:34:08.704Z,0.7
2022-08-18T00:35:17.392Z,0.8
2022-08-18T00:36:27.152Z,0.9
2022-08-18T00:37:35.910Z,0.7
2022-08-18T00:38:43.731Z,0.8
2022-08-18T00:39:53.642Z,0.6
2022-08-18T00:41:01.228Z,0.7
2022-08-18T00:42:10.006Z,1
2022-08-18T00:43:19.788Z,0.7
2022-08-18T00:44:27.546Z,0.8
2022-08-18T00:45:37.322Z,0.9
2022-08-18T00:46:47.118Z,0.8
2022-08-18T00:47:56.144Z,0.7
2022-08-18T00:49:05.686Z,0.6
2022-08-18T00:50:15.820Z,0.7
2022-08-18T00:51:25.253Z,0.8
2022-08-18T00:52:35.009Z,0.8
2022-08-18T00:53:42.834Z,0.8
2022-08-18T00:54:52.569Z,1.1
2022-08-18T00:56:02.334Z,1
2022-08-18T00:57:10.123Z,0.8
2022-08-18T00:58:19.884Z,1
2022-08-18T00:59:27.612Z,0.7
2022-08-18T01:00:37.504Z,0.9
2022-08-18T01:01:47.216Z,0.5
2022-08-18T01:02:55.108Z,0.8
2022-08-18T01:04:04.870Z,0.7
2022-08-18T01:05:12.630Z,0.8
2022-08-18T01:06:22.435Z,0.8
2022-08-18T01:07:31.255Z,0.7
2022-08-18T01:08:40.070Z,0.7
2022-08-18T01:09:50.848Z,1
2022-08-18T01:10:58.620Z,0.7
2022-08-18T01:12:12.578Z,0.6
2022-08-18T01:13:18.084Z,0.6
2022-08-18T01:14:27.049Z,0.8
2022-08-18T01:15:36.771Z,0.6
2022-08-18T01:16:53.155Z,0.8
2022-08-18T01:17:55.345Z,0.7
2022-08-18T01:19:05.082Z,0.6
2022-08-18T01:20:13.885Z,0.6
2022-08-18T01:21:22.577Z,1.1
2022-08-18T01:22:32.313Z,0.9
2022-08-18T01:23:40.065Z,0.8
2022-08-18T01:24:49.805Z,0.7
2022-08-18T01:25:58.618Z,0.8
2022-08-18T01:27:08.372Z,0.8
2022-08-18T01:28:18.155Z,0.6
2022-08-18T01:29:27.905Z,1.2
2022-08-18T01:30:37.667Z,0.9
2022-08-18T01:31:54.973Z,0.7
2022-08-18T01:32:56.188Z,0.7
2022-08-18T01:34:05.948Z,0.9
2022-08-18T01:35:14.771Z,0.6
2022-08-18T01:36:24.495Z,0.7
2022-08-18T01:37:34.310Z,1
2022-08-18T01:38:44.043Z,0.8
2022-08-18T01:41:00.584Z,0.9
2022-08-18T01:41:25.522Z,0.7
2022-08-18T01:42:13.338Z,0.9
2022-08-18T01:43:23.059Z,0.8
2022-08-18T01:44:31.837Z,0.7
2022-08-18T01:45:39.622Z,0.8
2022-08-18T01:46:49.372Z,0.8
2022-08-18T01:47:57.232Z,0.5
2022-08-18T01:49:05.990Z,0.9
2022-08-18T01:50:15.751Z,0.6
2022-08-18T01:51:36.354Z,0.8
2022-08-18T01:52:35.230Z,0.7
2022-08-18T01:53:43.938Z,0.6
2022-08-18T01:54:53.730Z,0.7
2022-08-18T01:56:03.472Z,0.7
2022-08-18T01:57:11.233Z,0.7
2022-08-18T01:58:21.007Z,0.8
2022-08-18T01:59:30.706Z,0.7
2022-08-18T02:00:38.473Z,0.8
2022-08-18T02:01:52.902Z,0.9
2022-08-18T02:03:02.243Z,0.9
2022-08-18T02:04:33.621Z,0.9
2022-08-18T02:05:19.473Z,1
2022-08-18T02:06:32.439Z,1.2
2022-08-18T02:07:40.255Z,0.7
2022-08-18T02:08:53.753Z,0.7
2022-08-18T02:10:00.561Z,0.7
2022-08-18T02:11:11.367Z,0.7
2022-08-18T02:12:21.187Z,0.8
2022-08-18T02:13:29.952Z,0.8
2022-08-18T02:14:39.764Z,0.8
2022-08-18T02:15:48.563Z,0.7
2022-08-18T02:17:01.272Z,0.8
2022-08-18T02:18:08.208Z,0.8
2022-08-18T02:19:15.968Z,0.7
2022-08-18T02:20:26.741Z,0.7
2022-08-18T02:21:35.447Z,0.7
2022-08-18T02:22:44.217Z,0.8
2022-08-18T02:23:54.195Z,0.6
2022-08-18T02:25:02.715Z,0.8
2022-08-18T02:26:11.470Z,0.7
2022-08-18T02:27:21.228Z,0.8
2022-08-18T02:28:30.926Z,0.9
2022-08-18T02:29:40.754Z,0.7
2022-08-18T02:30:50.536Z,0.8
2022-08-18T02:31:58.240Z,0.9
2022-08-18T02:33:08.012Z,1
2022-08-18T02:34:17.783Z,0.7
2022-08-18T02:35:26.520Z,1
2022-08-18T02:36:36.481Z,1
2022-08-18T02:37:46.231Z,1
2022-08-18T02:38:59.655Z,0.9
2022-08-18T02:40:03.762Z,1.2
2022-08-18T02:41:12.439Z,1
2022-08-18T02:42:22.220Z,1.1
2022-08-18T02:43:33.812Z,1.1
2022-08-18T02:44:40.672Z,1.1
2022-08-18T02:45:50.422Z,1.4
2022-08-18T02:46:59.219Z,1
2022-08-18T02:48:09.003Z,1.3
2022-08-18T02:49:18.753Z,1.2
2022-08-18T02:50:26.501Z,1.5
2022-08-18T02:51:36.276Z,1
2022-08-18T02:52:46.103Z,1.2
2022-08-18T02:53:55.899Z,1.3
2022-08-18T02:55:05.673Z,1
2022-08-18T02:56:13.438Z,1.2
2022-08-18T02:57:24.239Z,0.7
2022-08-18T02:58:34.067Z,1
2022-08-18T02:59:46.924Z,0.9
2022-08-18T03:00:54.713Z,0.8
2022-08-18T03:02:02.396Z,0.9
2022-08-18T03:03:12.213Z,0.9
2022-08-18T03:04:22.010Z,0.7
2022-08-18T03:05:30.728Z,0.8
2022-08-18T03:06:40.496Z,0.8
2022-08-18T03:07:49.243Z,0.9
2022-08-18T03:08:59.146Z,0.5
2022-08-18T03:10:32.090Z,1
2022-08-18T03:11:18.715Z,0.8
2022-08-18T03:12:28.453Z,0.6
2022-08-18T03:13:39.210Z,0.6
2022-08-18T03:14:47.996Z,0.8
2022-08-18T03:15:57.736Z,0.6
2022-08-18T03:17:05.490Z,0.7
2022-08-18T03:18:15.264Z,0.7
2022-08-18T03:19:26.102Z,0.7
2022-08-18T03:20:33.893Z,1
2022-08-18T03:21:43.661Z,0.7
2022-08-18T03:22:54.405Z,0.8
2022-08-18T03:24:09.212Z,0.7
2022-08-18T03:25:12.984Z,0.5
2022-08-18T03:26:21.722Z,0.4
2022-08-18T03:27:31.540Z,0.5
2022-08-18T03:28:41.354Z,0.5
2022-08-18T03:29:49.120Z,0.5
2022-08-18T03:30:58.893Z,0.6
2022-08-18T03:32:06.658Z,0.8
2022-08-18T03:33:15.567Z,0.7
2022-08-18T03:34:25.313Z,0.6
2022-08-18T03:35:33.045Z,0.8
2022-08-18T03:36:42.820Z,0.8
2022-08-18T03:37:51.693Z,0.6
2022-08-18T03:38:59.380Z,0.8
2022-08-18T03:40:09.189Z,0.9
2022-08-18T03:41:43.564Z,0.9
2022-08-18T03:42:28.729Z,0.9
2022-08-18T03:43:50.405Z,0.8
2022-08-18T03:44:48.282Z,0.7
2022-08-18T03:45:57.071Z,0.8
2022-08-18T03:47:06.802Z,0.7
2022-08-18T03:48:14.646Z,0.8
2022-08-18T03:49:24.396Z,0.7
2022-08-18T03:50:34.177Z,0.9
2022-08-18T03:51:42.933Z,0.5
2022-08-18T03:52:52.789Z,0.7
2022-08-18T03:54:00.466Z,0.4
2022-08-18T03:55:10.163Z,0.5
2022-08-18T03:56:20.140Z,0.9
2022-08-18T03:57:29.884Z,0.6
2022-08-18T03:58:40.644Z,0.7
2022-08-18T03:59:50.432Z,0.6
2022-08-18T04:00:58.254Z,0.7
2022-08-18T04:02:07.985Z,0.7
2022-08-18T04:03:15.725Z,0.9
2022-08-18T04:04:24.474Z,0.7
2022-08-18T04:05:34.229Z,0.7
2022-08-18T04:06:44.047Z,0.9
2022-08-18T04:07:53.834Z,0.9
2022-08-18T04:09:02.671Z,0.9
2022-08-18T04:10:14.023Z,1.1
2022-08-18T04:11:23.120Z,1.1
2022-08-18T04:12:30.887Z,1.4
2022-08-18T04:13:40.662Z,1.2
2022-08-18T04:14:50.401Z,0.9
2022-08-18T04:16:00.165Z,1.2
2022-08-18T04:17:09.892Z,1
2022-08-18T04:18:18.654Z,0.8
2022-08-18T04:19:28.539Z,0.9
2022-08-18T04:20:38.156Z,1
2022-08-18T04:21:46.893Z,1.4
2022-08-18T04:22:55.622Z,0.7
2022-08-18T04:24:05.379Z,1.1
2022-08-18T04:25:14.184Z,0.8
2022-08-18T04:26:23.953Z,0.8
2022-08-18T04:27:33.701Z,1
2022-08-18T04:28:41.443Z,1
2022-08-18T04:29:51.199Z,0.6
2022-08-18T04:30:59.951Z,0.9
2022-08-18T04:32:08.733Z,0.7
2022-08-18T04:33:18.505Z,0.8
2022-08-18T04:34:26.374Z,0.9
2022-08-18T04:35:36.101Z,0.5
2022-08-18T04:36:44.978Z,1
2022-08-18T04:37:53.005Z,1.5
2022-08-18T04:39:02.461Z,1
2022-08-18T04:40:11.325Z,0.7
2022-08-18T04:41:21.019Z,1
2022-08-18T04:42:30.842Z,0.5
2022-08-18T04:43:37.615Z,1
2022-08-18T04:44:47.384Z,0.8
2022-08-18T04:45:56.155Z,0.7
2022-08-18T04:47:05.007Z,0.8
2022-08-18T04:48:14.832Z,0.7
2022-08-18T04:49:22.628Z,0.7
2022-08-18T04:50:31.447Z,0.6
2022-08-18T04:52:21.731Z,0.6
2022-08-18T04:52:50.018Z,0.5
2022-08-18T04:54:00.023Z,0.5
2022-08-18T04:55:08.853Z,0.7
2022-08-18T04:56:17.635Z,0.8
2022-08-18T04:57:28.455Z,0.8
2022-08-18T04:58:35.165Z,0.7
2022-08-18T04:59:44.991Z,0.5
2022-08-18T05:00:52.837Z,0.5
2022-08-18T05:02:02.607Z,0.5
2022-08-18T05:03:12.424Z,0.6
2022-08-18T05:04:20.309Z,0.8
2022-08-18T05:05:30.105Z,1
2022-08-18T05:06:39.863Z,0.8
2022-08-18T05:07:48.714Z,0.6
2022-08-18T05:08:58.502Z,0.7
2022-08-18T05:10:07.347Z,1
2022-08-18T05:11:17.170Z,0.5
2022-08-18T05:12:27.885Z,0.5
2022-08-18T05:13:37.632Z,0.7
2022-08-18T05:14:48.447Z,0.8
2022-08-18T05:16:09.765Z,0.7
2022-08-18T05:17:08.957Z,0.7
2022-08-18T05:18:18.778Z,0.6
2022-08-18T05:19:28.460Z,0.6
2022-08-18T05:20:38.243Z,0.4
2022-08-18T05:21:49.615Z,0.7
2022-08-18T05:22:57.817Z,0.7
2022-08-18T05:24:07.564Z,0.7
2022-08-18T05:25:16.287Z,0.9
2022-08-18T05:26:23.996Z,0.6
2022-08-18T05:27:33.749Z,0.8
2022-08-18T05:28:42.488Z,0.5
2022-08-18T05:29:52.240Z,0.4
2022-08-18T05:31:01.945Z,0.7
2022-08-18T05:32:10.688Z,0.6
2022-08-18T05:33:21.416Z,0.5
2022-08-18T05:34:30.196Z,0.6
2022-08-18T05:35:37.926Z,0.8
2022-08-18T05:36:47.663Z,0.8
2022-08-18T05:37:56.442Z,0.9
2022-08-18T05:39:05.161Z,0.8
2022-08-18T05:40:14.968Z,0.7
2022-08-18T05:41:24.582Z,0.5
2022-08-18T05:42:33.403Z,0.5
2022-08-18T05:43:51.655Z,0.8
2022-08-18T05:44:52.871Z,0.7
2022-08-18T05:46:02.664Z,0.7
2022-08-18T05:47:12.364Z,0.8
2022-08-18T05:48:21.065Z,0.6
2022-08-18T05:49:30.758Z,0.7
2022-08-18T05:50:38.443Z,0.5
2022-08-18T05:51:48.177Z,0.6
2022-08-18T05:52:57.922Z,0.7
2022-08-18T05:54:05.607Z,0.6
2022-08-18T05:55:15.333Z,0.5
2022-08-18T05:56:24.131Z,0.3
2022-08-18T05:57:32.959Z,0.5
2022-08-18T05:58:42.681Z,0.4
2022-08-18T05:59:52.440Z,0.9
2022-08-18T06:01:02.149Z,0.6
2022-08-18T06:02:10.861Z,0.3
2022-08-18T06:03:20.773Z,0.6
2022-08-18T06:04:30.480Z,0.3
2022-08-18T06:05:39.207Z,0.7
2022-08-18T06:06:48.897Z,0.8
2022-08-18T06:07:58.616Z,0.4
2022-08-18T06:09:06.436Z,0.5
2022-08-18T06:10:15.249Z,0.4
2022-08-18T06:11:24.973Z,0.5
2022-08-18T06:12:32.688Z,0.6
2022-08-18T06:13:43.450Z,1.3
2022-08-18T06:14:52.338Z,1.2
2022-08-18T06:16:01.055Z,0.7
2022-08-18T06:17:10.780Z,0.8
2022-08-18T06:18:20.570Z,0.6
2022-08-18T06:19:30.359Z,0.7
2022-08-18T06:20:39.123Z,0.8
2022-08-18T06:21:46.858Z,0.5
2022-08-18T06:22:56.634Z,0.5
2022-08-18T06:24:04.363Z,0.6
2022-08-18T06:25:13.101Z,0.7
2022-08-18T06:26:22.865Z,0.5
2022-08-18T06:27:31.549Z,0.3
2022-08-18T06:28:41.281Z,0.6
2022-08-18T06:29:51.034Z,0.6
2022-08-18T06:30:58.750Z,0.6
2022-08-18T06:32:08.485Z,0.9
2022-08-18T06:33:17.154Z,0.5
2022-08-18T06:34:26.970Z,0.6
2022-08-18T06:35:36.642Z,0.6
2022-08-18T06:36:44.310Z,0.8
2022-08-18T06:37:54.084Z,0.6
2022-08-18T06:39:02.886Z,0.5
2022-08-18T06:40:11.619Z,0.7
2022-08-18T06:41:37.792Z,0.7
2022-08-18T06:42:30.982Z,0.7
2022-08-18T06:43:39.821Z,0.5
2022-08-18T06:44:49.497Z,0.4
2022-08-18T06:45:58.185Z,0.6
2022-08-18T06:47:07.894Z,0.7
2022-08-18T06:48:17.605Z,0.8
2022-08-18T06:49:26.347Z,0.6
2022-08-18T06:50:35.044Z,0.7
2022-08-18T06:51:44.716Z,0.3
2022-08-18T06:52:53.389Z,0.6
2022-08-18T06:54:03.119Z,0.5
2022-08-18T06:55:12.826Z,0.7
2022-08-18T06:56:26.101Z,0.6
2022-08-18T06:57:33.235Z,0.7
2022-08-18T06:58:43.103Z,0.5
2022-08-18T06:59:51.948Z,0.8
2022-08-18T07:00:59.713Z,0.5
2022-08-18T07:02:09.327Z,0.4
2022-08-18T07:03:17.101Z,0.6
2022-08-18T07:04:25.842Z,0.5
2022-08-18T07:05:35.557Z,0.3
2022-08-18T07:06:44.366Z,0.9
2022-08-18T07:07:54.214Z,0.9
2022-08-18T07:09:02.825Z,0.8
2022-08-18T07:10:11.394Z,0.6
2022-08-18T07:11:21.154Z,0.5
2022-08-18T07:12:32.812Z,0.7
2022-08-18T07:13:40.689Z,0.6
2022-08-18T07:14:50.475Z,0.5
2022-08-18T07:15:58.419Z,0.4
2022-08-18T07:17:08.085Z,0.6
2022-08-18T07:18:16.900Z,0.7
2022-08-18T07:19:24.697Z,0.7
2022-08-18T07:20:34.484Z,0.5
2022-08-18T07:21:43.484Z,0.5
2022-08-18T07:22:52.200Z,0.4
2022-08-18T07:24:23.508Z,0.3
2022-08-18T07:25:10.515Z,0.4
2022-08-18T07:26:20.174Z,0.3
2022-08-18T07:27:28.821Z,0.7
2022-08-18T07:28:36.493Z,0.3
2022-08-18T07:29:46.187Z,0.6
2022-08-18T07:31:15.775Z,0.4
2022-08-18T07:32:06.513Z,0.4
2022-08-18T07:33:16.196Z,0.5
2022-08-18T07:34:24.900Z,0.7
2022-08-18T07:35:34.721Z,0.8
2022-08-18T07:36:43.441Z,0.4
2022-08-18T07:37:51.295Z,0.8
2022-08-18T07:39:00.790Z,0.5
2022-08-18T07:40:09.550Z,0.4
2022-08-18T07:41:19.171Z,0.5
2022-08-18T07:42:32.032Z,0.4
2022-08-18T07:43:37.471Z,0.4
2022-08-18T07:44:47.169Z,0.6
2022-08-18T07:45:55.853Z,0.6
2022-08-18T07:47:03.549Z,0.6
2022-08-18T07:48:36.826Z,0.5
2022-08-18T07:49:23.864Z,0.6
2022-08-18T07:50:57.866Z,0.5
2022-08-18T07:51:44.189Z,0.5
2022-08-18T07:52:52.882Z,0.4
2022-08-18T07:54:03.564Z,0.5
2022-08-18T07:55:12.251Z,0.4
2022-08-18T07:56:19.939Z,0.4
2022-08-18T07:57:29.910Z,0.4
2022-08-18T07:58:38.559Z,0.3
2022-08-18T07:59:48.245Z,0.5
2022-08-18T08:00:59.506Z,0.5
2022-08-18T08:02:07.611Z,0.4
2022-08-18T08:03:17.281Z,0.7
2022-08-18T08:04:26.940Z,0.7
2022-08-18T08:05:34.676Z,0.5
2022-08-18T08:06:55.514Z,0.5
2022-08-18T08:07:53.153Z,0.6
2022-08-18T08:09:01.641Z,0.7
2022-08-18T08:10:11.336Z,0.4
2022-08-18T08:11:19.998Z,0.3
2022-08-18T08:12:29.706Z,0.4
2022-08-18T08:13:54.492Z,0.4
2022-08-18T08:14:48.007Z,0.4
2022-08-18T08:15:57.692Z,0.6
2022-08-18T08:17:06.376Z,0.6
2022-08-18T08:18:15.059Z,0.3
2022-08-18T08:19:42.815Z,0.7
2022-08-18T08:20:35.344Z,0.3
2022-08-18T08:21:45.143Z,0.5
2022-08-18T08:22:53.820Z,0.2
2022-08-18T08:24:01.478Z,0.5
2022-08-18T08:25:28.605Z,0.3
2022-08-18T08:26:20.823Z,0.5
2022-08-18T08:27:29.508Z,0.4
2022-08-18T08:28:39.220Z,0.4
2022-08-18T08:29:46.887Z,0.5
2022-08-18T08:31:02.100Z,0.4
2022-08-18T08:32:06.218Z,0.4
2022-08-18T08:33:13.948Z,0.4
2022-08-18T08:34:23.633Z,0.3
2022-08-18T08:35:47.086Z,0.3
2022-08-18T08:36:42.928Z,0.4
2022-08-18T08:37:52.742Z,0.4
2022-08-18T08:39:01.290Z,0.6
2022-08-18T08:40:10.991Z,0.6
2022-08-18T08:41:19.642Z,0.7
2022-08-18T08:42:33.075Z,0.4
2022-08-18T08:43:38.978Z,0.6
2022-08-18T08:44:58.687Z,0.3
2022-08-18T08:45:58.334Z,0.4
2022-08-18T08:47:07.986Z,0.5
2022-08-18T08:48:16.649Z,0.4
2022-08-18T08:49:26.317Z,0.3
2022-08-18T08:50:36.076Z,0.4
2022-08-18T08:51:44.733Z,0.3
2022-08-18T08:52:57.077Z,0.5
2022-08-18T08:54:03.178Z,0.5
2022-08-18T08:55:12.878Z,0.6
2022-08-18T08:56:20.545Z,0.4
2022-08-18T08:57:29.229Z,0.6
2022-08-18T08:58:38.907Z,0.2
2022-08-18T08:59:46.578Z,0.6
2022-08-18T09:00:56.270Z,0.3
2022-08-18T09:02:05.020Z,0.5
2022-08-18T09:03:12.621Z,0.4
2022-08-18T09:04:22.293Z,0.6
2022-08-18T09:05:30.010Z,0.5
2022-08-18T09:06:39.697Z,0.5
2022-08-18T09:07:49.373Z,0.6
2022-08-18T09:08:58.059Z,0.6
2022-08-18T09:10:07.791Z,0.5
2022-08-18T09:11:16.494Z,0.5
2022-08-18T09:12:24.144Z,0.6
2022-08-18T09:13:33.832Z,0.5
2022-08-18T09:14:42.494Z,0.4
2022-08-18T09:15:52.159Z,0.5
2022-08-18T09:17:01.854Z,0.4
2022-08-18T09:18:10.520Z,0.8
2022-08-18T09:19:20.250Z,0.4
2022-08-18T09:20:29.928Z,0.4
2022-08-18T09:21:38.579Z,0.3
2022-08-18T09:22:48.345Z,0.5
2022-08-18T09:23:55.955Z,0.6
2022-08-18T09:25:04.662Z,0.4
2022-08-18T09:26:14.356Z,0.4
2022-08-18T09:27:23.017Z,0.5
2022-08-18T09:28:32.681Z,0.6
2022-08-18T09:29:44.101Z,0.2
2022-08-18T09:30:52.009Z,0.5
2022-08-18T09:32:01.691Z,0.5
2022-08-18T09:34:22.032Z,0.3
2022-08-18T09:35:31.715Z,0.5
2022-08-18T09:36:41.369Z,0.3
2022-08-18T09:37:51.045Z,0.3
2022-08-18T09:39:00.705Z,0.6
2022-08-18T09:40:11.159Z,0.4
2022-08-18T09:41:21.124Z,0.3
2022-08-18T09:42:30.719Z,0.5
2022-08-18T09:43:39.399Z,0.3
2022-08-18T09:44:49.172Z,0.5
2022-08-18T09:45:57.732Z,0.3
2022-08-18T09:47:07.392Z,0.4
2022-08-18T09:48:20.835Z,0.4
2022-08-18T09:49:26.964Z,0.5
2022-08-18T09:50:36.368Z,0.5
2022-08-18T09:51:45.056Z,0.3
2022-08-18T09:52:55.999Z,0.4
2022-08-18T09:54:05.530Z,0.3
2022-08-18T09:55:14.222Z,0.4
2022-08-18T09:56:28.491Z,0.4
2022-08-18T09:57:33.611Z,0.6
2022-08-18T09:58:44.238Z,0.4
2022-08-18T09:59:53.961Z,0.5
2022-08-18T10:01:02.728Z,0.6
2022-08-18T10:02:17.732Z,0.5
2022-08-18T10:03:25.615Z,0.4
2022-08-18T10:04:33.671Z,0.3
2022-08-18T10:05:43.385Z,0.8
2022-08-18T10:06:53.061Z,0.4
2022-08-18T10:08:03.600Z,0.3
2022-08-18T10:09:14.549Z,0.3
2022-08-18T10:11:00.291Z,0.4
2022-08-18T10:11:34.055Z,0.6
2022-08-18T10:12:43.431Z,0.5
2022-08-18T10:13:52.088Z,0.4
2022-08-18T10:15:01.780Z,0.5
2022-08-18T10:16:11.494Z,0.6
2022-08-18T10:17:22.009Z,0.4
2022-08-18T10:18:31.754Z,0.2
2022-08-18T10:19:41.452Z,0.4
2022-08-18T10:20:52.163Z,0.4
2022-08-18T10:22:01.870Z,0.4
2022-08-18T10:23:10.549Z,0.4
2022-08-18T10:24:36.612Z,0.6
2022-08-18T10:25:30.879Z,0.3
2022-08-18T10:26:39.586Z,0.5
2022-08-18T10:27:50.283Z,0.4
2022-08-18T10:28:59.079Z,0.3
2022-08-18T10:30:11.482Z,0.5
2022-08-18T10:31:23.975Z,0.6
2022-08-18T10:32:29.130Z,0.4
2022-08-18T10:33:39.788Z,0.3
2022-08-18T10:34:52.237Z,0.5
2022-08-18T10:35:58.151Z,0.4
2022-08-18T10:37:07.836Z,0.3
2022-08-18T10:38:17.491Z,0.3
2022-08-18T10:39:26.159Z,0.6
2022-08-18T10:40:35.867Z,0.5
2022-08-18T10:41:45.520Z,0.3
2022-08-18T10:42:55.582Z,0.5
2022-08-18T10:44:21.057Z,0.4
2022-08-18T10:45:16.130Z,0.3
2022-08-18T10:46:27.146Z,0.4
2022-08-18T10:47:35.992Z,0.4
2022-08-18T10:48:45.669Z,0.4
2022-08-18T10:49:55.353Z,0.4
2022-08-18T10:51:05.015Z,0.4
2022-08-18T10:52:13.707Z,0.3
2022-08-18T10:53:40.928Z,0.4
2022-08-18T10:54:33.986Z,0.4
2022-08-18T10:55:48.426Z,0.5
2022-08-18T10:56:54.293Z,0.4
2022-08-18T10:58:05.118Z,0.3
2022-08-18T10:59:16.238Z,0.4
2022-08-18T11:00:25.430Z,0.6
2022-08-18T11:01:35.517Z,0.7
2022-08-18T11:02:43.749Z,0.3
2022-08-18T11:03:55.439Z,0.5
2022-08-18T11:05:03.065Z,0.3
2022-08-18T11:06:14.639Z,0.5
2022-08-18T11:07:23.378Z,0.4
2022-08-18T11:08:33.008Z,0.4
2022-08-18T11:09:50.780Z,0.6
2022-08-18T11:11:15.309Z,0.4
2022-08-18T11:12:04.047Z,0.6
2022-08-18T11:13:13.715Z,0.4
2022-08-18T11:14:21.370Z,0.5
2022-08-18T11:15:35.846Z,0.4
2022-08-18T11:16:41.736Z,0.5
2022-08-18T11:17:51.393Z,0.6
2022-08-18T11:19:00.053Z,0.5
2022-08-18T11:20:09.803Z,0.4
2022-08-18T11:21:19.441Z,0.3
2022-08-18T11:22:31.331Z,0.4
2022-08-18T11:23:38.737Z,0.6
2022-08-18T11:24:49.398Z,0.5
2022-08-18T11:25:59.066Z,0.5
2022-08-18T11:27:09.699Z,0.8
2022-08-18T11:28:18.620Z,0.4
2022-08-18T11:29:28.121Z,0.6
2022-08-18T11:30:37.785Z,0.6
2022-08-18T11:31:52.517Z,0.5
2022-08-18T11:32:58.551Z,0.5
2022-08-18T11:34:05.877Z,0.4
2022-08-18T11:35:15.562Z,0.5
2022-08-18T11:36:26.116Z,0.5
2022-08-18T11:38:46.573Z,0.4
2022-08-18T11:39:56.295Z,0.5
2022-08-18T11:41:09.403Z,0.5
2022-08-18T11:42:15.743Z,0.3
2022-08-18T11:43:25.210Z,0.6
2022-08-18T11:44:35.926Z,0.5
2022-08-18T11:45:45.672Z,0.5
2022-08-18T11:46:54.255Z,0.6
2022-08-18T11:48:04.955Z,0.5
2022-08-18T11:49:15.438Z,0.4
2022-08-18T11:50:25.337Z,0.8
2022-08-18T11:51:34.022Z,0.7
2022-08-18T11:52:43.675Z,0.5
2022-08-18T11:53:58.173Z,0.3
2022-08-18T11:55:14.511Z,0.5
2022-08-18T11:57:24.497Z,0.4
2022-08-18T11:58:35.155Z,0.7
2022-08-18T11:59:52.376Z,0.7
2022-08-18T12:00:53.492Z,0.6
2022-08-18T12:02:01.318Z,0.4
2022-08-18T12:03:11.003Z,0.7
2022-08-18T12:04:18.659Z,0.5
2022-08-18T12:05:27.343Z,0.6
2022-08-18T12:06:36.001Z,0.5
2022-08-18T12:07:49.738Z,0.6
2022-08-18T12:08:58.743Z,0.6
2022-08-18T12:10:14.833Z,0.5
2022-08-18T12:11:26.944Z,0.6
2022-08-18T12:12:28.323Z,0.5
2022-08-18T12:13:36.072Z,0.4
2022-08-18T12:14:45.876Z,0.3
2022-08-18T12:15:56.409Z,0.4
2022-08-18T12:17:05.071Z,0.7
2022-08-18T12:18:19.155Z,0.6
2022-08-18T12:19:26.387Z,0.4
2022-08-18T12:20:34.093Z,0.7
2022-08-18T12:21:43.729Z,0.7
2022-08-18T12:22:54.794Z,0.5
2022-08-18T12:24:03.107Z,0.8
2022-08-18T12:25:12.793Z,0.6
2022-08-18T12:26:27.554Z,0.6
2022-08-18T12:27:33.072Z,0.6
2022-08-18T12:28:41.769Z,0.3
2022-08-18T12:29:50.638Z,0.4
2022-08-18T12:31:00.110Z,0.3
2022-08-18T12:32:08.760Z,0.6
2022-08-18T12:33:25.335Z,0.4
2022-08-18T12:34:29.114Z,0.4
2022-08-18T12:35:37.824Z,0.5
2022-08-18T12:36:47.634Z,0.4
2022-08-18T12:38:00.742Z,0.4
2022-08-18T12:39:07.984Z,0.4
2022-08-18T12:40:18.683Z,0.3
2022-08-18T12:41:28.363Z,0.3
2022-08-18T12:42:38.061Z,0.4
2022-08-18T12:43:58.745Z,0.6
2022-08-18T12:44:56.421Z,0.4
2022-08-18T12:46:06.099Z,0.3
2022-08-18T12:47:14.788Z,0.5
2022-08-18T12:48:24.517Z,0.4
2022-08-18T12:49:35.236Z,0.5
2022-08-18T12:50:50.322Z,0.4
2022-08-18T12:51:56.548Z,0.6
2022-08-18T12:53:06.224Z,0.3
2022-08-18T12:54:14.905Z,0.6
2022-08-18T12:55:24.593Z,0.6
2022-08-18T12:56:33.279Z,0.3
2022-08-18T12:57:52.669Z,0.5
2022-08-18T12:58:53.600Z,0.5
2022-08-18T13:00:01.264Z,0.2
2022-08-18T13:01:11.991Z,0.5
2022-08-18T13:02:19.601Z,0.4
2022-08-18T13:03:30.242Z,0.7
2022-08-18T13:04:40.997Z,0.5
2022-08-18T13:05:50.778Z,0.7
2022-08-18T13:07:04.894Z,0.6
2022-08-18T13:08:12.483Z,0.7
2022-08-18T13:09:35.907Z,0.5
2022-08-18T13:10:35.990Z,0.7
2022-08-18T13:11:42.098Z,0.4
2022-08-18T13:12:50.757Z,0.4
2022-08-18T13:14:00.425Z,0.5
2022-08-18T13:15:11.074Z,0.5
2022-08-18T13:16:30.910Z,0.4
2022-08-18T13:17:33.228Z,0.3
2022-08-18T13:18:42.222Z,0.7
2022-08-18T13:19:51.734Z,0.4
2022-08-18T13:21:01.390Z,0.8
2022-08-18T13:22:11.094Z,0.6
2022-08-18T13:23:24.646Z,0.3
2022-08-18T13:24:29.462Z,0.4
2022-08-18T13:25:39.505Z,0.5
2022-08-18T13:26:48.810Z,0.5
2022-08-18T13:27:57.441Z,0.6
2022-08-18T13:29:10.069Z,0.6
2022-08-18T13:30:30.664Z,0.6
2022-08-18T13:31:29.409Z,0.4
2022-08-18T13:32:47.311Z,0.4
2022-08-18T13:33:56.521Z,0.5
2022-08-18T13:35:00.329Z,0.5
2022-08-18T13:36:09.015Z,0.7
2022-08-18T13:37:17.676Z,0.4
2022-08-18T13:38:28.391Z,0.8
2022-08-18T13:39:37.993Z,0.8
2022-08-18T13:40:47.620Z,0.8
2022-08-18T13:41:57.262Z,0.8
2022-08-18T13:43:09.324Z,0.6
2022-08-18T13:44:19.032Z,0.6
2022-08-18T13:45:28.226Z,0.6
2022-08-18T13:46:36.917Z,0.4
2022-08-18T13:47:46.571Z,0.5
2022-08-18T13:48:54.230Z,0.6
2022-08-18T13:50:04.674Z,0.8
2022-08-18T13:51:13.571Z,0.7
2022-08-18T13:52:33.704Z,0.6
2022-08-18T13:53:34.251Z,0.5
2022-08-18T13:54:42.581Z,0.7
2022-08-18T13:55:51.272Z,0.7
2022-08-18T13:57:00.962Z,0.5
2022-08-18T13:58:17.432Z,0.6
2022-08-18T13:59:20.527Z,0.9
2022-08-18T14:00:31.171Z,0.9
2022-08-18T14:01:42.289Z,0.7
2022-08-18T14:02:51.259Z,0.7
2022-08-18T14:03:59.948Z,1.4
2022-08-18T14:05:08.629Z,0.5
2022-08-18T14:06:22.055Z,1.6
2022-08-18T14:07:29.891Z,1.3
2022-08-18T14:08:39.544Z,0.7
2022-08-18T14:09:49.372Z,0.9
2022-08-18T14:10:57.044Z,0.5
2022-08-18T14:12:06.705Z,0.7
2022-08-18T14:13:20.378Z,0.7
2022-08-18T14:14:26.001Z,0.9
2022-08-18T14:15:51.571Z,1
2022-08-18T14:16:57.160Z,1
2022-08-18T14:18:06.829Z,0.7
2022-08-18T14:19:17.743Z,0.8
2022-08-18T14:20:27.528Z,0.4
2022-08-18T14:21:36.843Z,0.7
2022-08-18T14:22:46.527Z,0.8
2022-08-18T14:23:57.119Z,0.7
2022-08-18T14:25:05.775Z,0.5
2022-08-18T14:26:13.454Z,1.1
2022-08-18T14:27:22.167Z,0.9
2022-08-18T14:28:31.830Z,1.3
2022-08-18T14:29:46.649Z,0.9
2022-08-18T14:30:54.324Z,0.7
2022-08-18T14:32:02.826Z,0.6
2022-08-18T14:33:12.534Z,0.7
2022-08-18T14:34:26.910Z,0.8
2022-08-18T14:35:34.221Z,0.6
2022-08-18T14:36:43.557Z,0.6
2022-08-18T14:37:53.416Z,0.6
2022-08-18T14:39:03.060Z,0.6
2022-08-18T14:40:12.785Z,0.6
2022-08-18T14:41:25.511Z,0.5
2022-08-18T14:42:32.684Z,0.5
2022-08-18T14:43:50.803Z,0.6
2022-08-18T14:44:53.334Z,0.6
2022-08-18T14:46:02.963Z,0.6
2022-08-18T14:47:12.626Z,0.6
2022-08-18T14:48:22.274Z,0.6
2022-08-18T14:49:32.908Z,0.7
2022-08-18T14:50:44.671Z,0.6
2022-08-18T14:51:53.266Z,0.6
2022-08-18T14:53:01.940Z,0.8
2022-08-18T14:54:10.600Z,0.5
2022-08-18T14:55:21.252Z,0.6
2022-08-18T14:56:32.368Z,0.6
2022-08-18T14:57:41.599Z,0.4
2022-08-18T14:58:49.284Z,0.6
2022-08-18T14:59:57.930Z,0.4
2022-08-18T15:01:08.323Z,0.5
2022-08-18T15:02:17.277Z,0.6
2022-08-18T15:03:28.108Z,0.8
2022-08-18T15:04:38.619Z,0.7
2022-08-18T15:05:49.272Z,0.8
2022-08-18T15:06:58.941Z,0.8
2022-08-18T15:08:08.691Z,0.7
2022-08-18T15:09:18.327Z,0.7
2022-08-18T15:10:28.369Z,0.7
2022-08-18T15:11:37.622Z,0.8
2022-08-18T15:12:47.338Z,0.5
2022-08-18T15:13:57.079Z,0.5
2022-08-18T15:15:06.719Z,0.7
2022-08-18T15:16:15.447Z,0.8
2022-08-18T15:17:25.043Z,0.9
2022-08-18T15:18:33.735Z,0.5
2022-08-18T15:19:59.785Z,0.8
2022-08-18T15:20:54.157Z,0.7
2022-08-18T15:22:02.804Z,0.8
2022-08-18T15:23:12.487Z,0.6
2022-08-18T15:24:22.159Z,0.5
2022-08-18T15:25:30.843Z,0.7
2022-08-18T15:26:40.484Z,0.6
2022-08-18T15:27:52.223Z,0.4
2022-08-18T15:29:00.166Z,0.6
2022-08-18T15:30:09.467Z,0.8
2022-08-18T15:32:30.788Z,0.8
2022-08-18T15:33:40.428Z,0.7
2022-08-18T15:34:51.399Z,1
2022-08-18T15:36:00.749Z,0.5
2022-08-18T15:37:10.416Z,0.9
2022-08-18T15:38:20.091Z,0.6
2022-08-18T15:39:29.740Z,0.8
2022-08-18T15:40:41.487Z,0.6
2022-08-18T15:43:01.260Z,0.7
2022-08-18T15:44:09.340Z,0.8
2022-08-18T15:45:20.012Z,1
2022-08-18T15:46:29.650Z,1
2022-08-18T15:47:39.312Z,1.1
2022-08-18T15:48:48.000Z,0.9
2022-08-18T15:49:57.783Z,0.8
2022-08-18T15:51:11.580Z,0.9
2022-08-18T15:52:17.744Z,0.9
2022-08-18T15:53:29.580Z,0.8
2022-08-18T15:54:36.323Z,0.6
2022-08-18T15:55:43.973Z,0.6
2022-08-18T15:56:55.887Z,0.6
2022-08-18T15:58:04.327Z,1
2022-08-18T15:59:14.006Z,1.3
2022-08-18T16:00:24.945Z,1.5
2022-08-18T16:01:34.455Z,1.5
2022-08-18T16:02:44.699Z,1.2
2022-08-18T16:03:53.780Z,1.1
2022-08-18T16:05:09.315Z,1